sensor_id;sensor_type;location;lat;lon;timestamp;pressure;altitude;pressure_sealevel;temperature;humidity
65010;BME280;51556;50.002;22.014;2023-01-15T00:01:35;99144.52;;;4.17;70.63
65010;BME280;51556;50.002;22.014;2023-01-15T00:04:03;99147.66;;;4.18;70.44
65010;BME280;51556;50.002;22.014;2023-01-15T00:06:30;99146.61;;;4.20;70.32
65010;BME280;51556;50.002;22.014;2023-01-15T00:08:57;99143.29;;;4.20;70.20
65010;BME280;51556;50.002;22.014;2023-01-15T00:11:23;99142.27;;;4.15;70.57
65010;BME280;51556;50.002;22.014;2023-01-15T00:13:48;99137.23;;;4.12;70.39
65010;BME280;51556;50.002;22.014;2023-01-15T00:16:20;99136.70;;;4.12;70.34
65010;BME280;51556;50.002;22.014;2023-01-15T00:18:50;99127.46;;;4.17;70.48
65010;BME280;51556;50.002;22.014;2023-01-15T00:21:16;99123.98;;;4.15;70.42
65010;BME280;51556;50.002;22.014;2023-01-15T00:23:42;99120.33;;;4.13;70.43
65010;BME280;51556;50.002;22.014;2023-01-15T00:26:28;99113.70;;;4.13;70.35
65010;BME280;51556;50.002;22.014;2023-01-15T00:29:13;99105.52;;;4.15;70.19
65010;BME280;51556;50.002;22.014;2023-01-15T00:31:39;99104.63;;;4.20;69.90
65010;BME280;51556;50.002;22.014;2023-01-15T00:34:05;99097.13;;;4.23;70.07
65010;BME280;51556;50.002;22.014;2023-01-15T00:36:31;99098.17;;;4.20;69.99
65010;BME280;51556;50.002;22.014;2023-01-15T00:38:58;99103.75;;;4.21;70.05
65010;BME280;51556;50.002;22.014;2023-01-15T00:41:23;99100.10;;;4.16;70.09
65010;BME280;51556;50.002;22.014;2023-01-15T00:43:49;99101.34;;;4.14;70.01
65010;BME280;51556;50.002;22.014;2023-01-15T00:46:14;99097.33;;;4.14;70.20
65010;BME280;51556;50.002;22.014;2023-01-15T00:48:40;99085.11;;;4.18;70.11
65010;BME280;51556;50.002;22.014;2023-01-15T00:51:05;99079.88;;;4.21;70.07
65010;BME280;51556;50.002;22.014;2023-01-15T00:53:31;99074.84;;;4.18;69.98
65010;BME280;51556;50.002;22.014;2023-01-15T00:55:57;99078.14;;;4.19;70.15
65010;BME280;51556;50.002;22.014;2023-01-15T00:58:22;99076.21;;;4.24;70.00
65010;BME280;51556;50.002;22.014;2023-01-15T01:00:57;99074.27;;;4.29;69.82
65010;BME280;51556;50.002;22.014;2023-01-15T01:03:23;99065.39;;;4.29;69.67
65010;BME280;51556;50.002;22.014;2023-01-15T01:05:49;99060.67;;;4.30;69.63
65010;BME280;51556;50.002;22.014;2023-01-15T01:08:15;99056.16;;;4.27;69.88
65010;BME280;51556;50.002;22.014;2023-01-15T01:10:41;99057.02;;;4.29;69.83
65010;BME280;51556;50.002;22.014;2023-01-15T01:13:07;99050.23;;;4.28;69.59
65010;BME280;51556;50.002;22.014;2023-01-15T01:15:33;99045.18;;;4.28;69.58
65010;BME280;51556;50.002;22.014;2023-01-15T01:18:01;99046.56;;;4.29;69.95
65010;BME280;51556;50.002;22.014;2023-01-15T01:20:27;99047.28;;;4.26;70.04
65010;BME280;51556;50.002;22.014;2023-01-15T01:22:53;99045.89;;;4.25;70.02
65010;BME280;51556;50.002;22.014;2023-01-15T01:25:18;99044.33;;;4.23;69.91
65010;BME280;51556;50.002;22.014;2023-01-15T01:27:45;99045.02;;;4.23;70.16
65010;BME280;51556;50.002;22.014;2023-01-15T01:30:11;99040.83;;;4.25;70.03
65010;BME280;51556;50.002;22.014;2023-01-15T01:32:37;99039.10;;;4.25;69.70
65010;BME280;51556;50.002;22.014;2023-01-15T01:35:03;99029.48;;;4.30;69.82
65010;BME280;51556;50.002;22.014;2023-01-15T01:37:29;99027.38;;;4.33;69.62
65010;BME280;51556;50.002;22.014;2023-01-15T01:39:54;99023.17;;;4.36;69.75
65010;BME280;51556;50.002;22.014;2023-01-15T01:42:21;99022.30;;;4.38;69.50
65010;BME280;51556;50.002;22.014;2023-01-15T01:47:17;99015.31;;;4.41;69.17
65010;BME280;51556;50.002;22.014;2023-01-15T01:49:48;99008.71;;;4.37;69.02
65010;BME280;51556;50.002;22.014;2023-01-15T01:52:25;99011.48;;;4.40;68.91
65010;BME280;51556;50.002;22.014;2023-01-15T01:54:51;99011.31;;;4.41;69.36
65010;BME280;51556;50.002;22.014;2023-01-15T01:57:19;99016.54;;;4.41;68.89
65010;BME280;51556;50.002;22.014;2023-01-15T01:59:46;99016.54;;;4.40;68.62
65010;BME280;51556;50.002;22.014;2023-01-15T02:02:12;99026.80;;;4.43;68.96
65010;BME280;51556;50.002;22.014;2023-01-15T02:04:39;99017.55;;;4.44;68.72
65010;BME280;51556;50.002;22.014;2023-01-15T02:07:05;99012.81;;;4.48;68.83
65010;BME280;51556;50.002;22.014;2023-01-15T02:09:31;99003.90;;;4.50;68.55
65010;BME280;51556;50.002;22.014;2023-01-15T02:12:05;98992.20;;;4.54;68.66
65010;BME280;51556;50.002;22.014;2023-01-15T02:17:45;98988.15;;;4.61;68.40
65010;BME280;51556;50.002;22.014;2023-01-15T02:20:22;98980.64;;;4.60;68.32
65010;BME280;51556;50.002;22.014;2023-01-15T02:28:23;98974.21;;;4.59;68.32
65010;BME280;51556;50.002;22.014;2023-01-15T02:36:21;98971.73;;;4.65;68.07
65010;BME280;51556;50.002;22.014;2023-01-15T02:38:49;98966.88;;;4.62;68.38
65010;BME280;51556;50.002;22.014;2023-01-15T02:41:20;98959.89;;;4.63;68.19
65010;BME280;51556;50.002;22.014;2023-01-15T02:43:52;98959.88;;;4.64;67.90
65010;BME280;51556;50.002;22.014;2023-01-15T02:46:21;98956.91;;;4.65;68.10
65010;BME280;51556;50.002;22.014;2023-01-15T02:48:51;98960.58;;;4.63;68.17
65010;BME280;51556;50.002;22.014;2023-01-15T02:51:21;98958.83;;;4.64;68.15
65010;BME280;51556;50.002;22.014;2023-01-15T02:53:51;98958.46;;;4.67;68.31
65010;BME280;51556;50.002;22.014;2023-01-15T02:56:21;98959.52;;;4.66;67.90
65010;BME280;51556;50.002;22.014;2023-01-15T02:58:51;98962.15;;;4.64;67.90
65010;BME280;51556;50.002;22.014;2023-01-15T03:01:21;98965.80;;;4.66;68.09
65010;BME280;51556;50.002;22.014;2023-01-15T03:04:19;98958.29;;;4.67;68.24
65010;BME280;51556;50.002;22.014;2023-01-15T03:09:32;98940.12;;;4.72;68.02
65010;BME280;51556;50.002;22.014;2023-01-15T03:17:35;98929.45;;;4.75;68.00
65010;BME280;51556;50.002;22.014;2023-01-15T03:20:08;98926.30;;;4.78;67.69
65010;BME280;51556;50.002;22.014;2023-01-15T03:22:39;98918.95;;;4.80;67.29
65010;BME280;51556;50.002;22.014;2023-01-15T03:25:16;98909.23;;;4.75;67.04
65010;BME280;51556;50.002;22.014;2023-01-15T03:27:43;98899.85;;;4.71;67.08
65010;BME280;51556;50.002;22.014;2023-01-15T03:30:18;98897.27;;;4.67;67.25
65010;BME280;51556;50.002;22.014;2023-01-15T03:32:45;98899.52;;;4.67;66.97
65010;BME280;51556;50.002;22.014;2023-01-15T03:35:45;98896.42;;;4.65;67.12
65010;BME280;51556;50.002;22.014;2023-01-15T03:38:12;98883.19;;;4.63;66.92
65010;BME280;51556;50.002;22.014;2023-01-15T03:40:51;98887.88;;;4.64;66.75
65010;BME280;51556;50.002;22.014;2023-01-15T03:43:20;98888.39;;;4.66;66.91
65010;BME280;51556;50.002;22.014;2023-01-15T03:46:13;98892.42;;;4.63;66.39
65010;BME280;51556;50.002;22.014;2023-01-15T03:48:53;98897.43;;;4.68;66.57
65010;BME280;51556;50.002;22.014;2023-01-15T03:51:32;98901.43;;;4.69;66.65
65010;BME280;51556;50.002;22.014;2023-01-15T03:54:02;98897.27;;;4.68;66.34
65010;BME280;51556;50.002;22.014;2023-01-15T03:56:34;98893.25;;;4.68;66.14
65010;BME280;51556;50.002;22.014;2023-01-15T03:59:15;98894.45;;;4.70;66.23
65010;BME280;51556;50.002;22.014;2023-01-15T04:01:44;98893.56;;;4.72;66.18
65010;BME280;51556;50.002;22.014;2023-01-15T04:04:12;98892.52;;;4.73;66.03
65010;BME280;51556;50.002;22.014;2023-01-15T04:06:40;98897.55;;;4.77;65.96
65010;BME280;51556;50.002;22.014;2023-01-15T04:09:10;98901.35;;;4.79;65.89
65010;BME280;51556;50.002;22.014;2023-01-15T04:11:36;98893.15;;;4.80;65.55
65010;BME280;51556;50.002;22.014;2023-01-15T04:14:02;98888.64;;;4.78;65.47
65010;BME280;51556;50.002;22.014;2023-01-15T04:16:31;98879.56;;;4.78;65.55
65010;BME280;51556;50.002;22.014;2023-01-15T04:18:57;98874.67;;;4.78;65.48
65010;BME280;51556;50.002;22.014;2023-01-15T04:21:23;98873.81;;;4.79;65.54
65010;BME280;51556;50.002;22.014;2023-01-15T04:23:49;98879.02;;;4.80;65.72
65010;BME280;51556;50.002;22.014;2023-01-15T04:26:14;98882.64;;;4.83;65.67
65010;BME280;51556;50.002;22.014;2023-01-15T04:28:40;98875.59;;;4.89;65.74
65010;BME280;51556;50.002;22.014;2023-01-15T04:31:06;98865.61;;;4.93;65.19
65010;BME280;51556;50.002;22.014;2023-01-15T04:33:32;98867.02;;;4.90;65.13
65010;BME280;51556;50.002;22.014;2023-01-15T04:35:59;98866.19;;;4.87;65.29
65010;BME280;51556;50.002;22.014;2023-01-15T04:38:25;98873.38;;;4.85;65.05
65010;BME280;51556;50.002;22.014;2023-01-15T04:40:51;98880.89;;;4.83;65.19
65010;BME280;51556;50.002;22.014;2023-01-15T04:43:35;98886.10;;;4.84;65.41
65010;BME280;51556;50.002;22.014;2023-01-15T04:46:23;98873.36;;;4.85;65.26
65010;BME280;51556;50.002;22.014;2023-01-15T04:48:49;98873.19;;;4.85;65.18
65010;BME280;51556;50.002;22.014;2023-01-15T04:51:14;98877.70;;;4.87;65.68
65010;BME280;51556;50.002;22.014;2023-01-15T04:53:40;98880.12;;;4.89;65.61
65010;BME280;51556;50.002;22.014;2023-01-15T04:56:06;98876.96;;;4.91;65.20
65010;BME280;51556;50.002;22.014;2023-01-15T04:58:32;98871.54;;;4.92;65.32
65010;BME280;51556;50.002;22.014;2023-01-15T05:00:58;98870.69;;;4.91;65.08
65010;BME280;51556;50.002;22.014;2023-01-15T05:03:28;98870.32;;;4.94;65.23
65010;BME280;51556;50.002;22.014;2023-01-15T05:05:55;98864.17;;;4.96;65.45
65010;BME280;51556;50.002;22.014;2023-01-15T05:08:20;98853.48;;;5.01;65.47
65010;BME280;51556;50.002;22.014;2023-01-15T05:10:46;98853.64;;;5.04;65.00
65010;BME280;51556;50.002;22.014;2023-01-15T05:13:11;98849.48;;;5.00;64.90
65010;BME280;51556;50.002;22.014;2023-01-15T05:15:37;98841.80;;;5.01;65.05
65010;BME280;51556;50.002;22.014;2023-01-15T05:18:05;98844.94;;;5.02;64.97
65010;BME280;51556;50.002;22.014;2023-01-15T05:20:30;98837.62;;;5.01;64.97
65010;BME280;51556;50.002;22.014;2023-01-15T05:22:56;98839.23;;;4.97;64.99
65010;BME280;51556;50.002;22.014;2023-01-15T05:25:21;98844.55;;;5.04;65.29
65010;BME280;51556;50.002;22.014;2023-01-15T05:27:47;98852.89;;;5.08;65.00
65010;BME280;51556;50.002;22.014;2023-01-15T05:30:13;98862.64;;;5.10;64.80
65010;BME280;51556;50.002;22.014;2023-01-15T05:32:38;98865.59;;;5.12;65.05
65010;BME280;51556;50.002;22.014;2023-01-15T05:35:04;98868.55;;;5.11;64.42
65010;BME280;51556;50.002;22.014;2023-01-15T05:37:30;98855.34;;;5.08;64.56
65010;BME280;51556;50.002;22.014;2023-01-15T05:39:55;98843.60;;;5.12;64.96
65010;BME280;51556;50.002;22.014;2023-01-15T05:42:20;98848.82;;;5.13;64.47
65010;BME280;51556;50.002;22.014;2023-01-15T05:44:46;98845.20;;;5.09;64.65
65010;BME280;51556;50.002;22.014;2023-01-15T05:47:11;98830.23;;;5.08;64.60
65010;BME280;51556;50.002;22.014;2023-01-15T05:49:38;98833.19;;;5.07;64.56
65010;BME280;51556;50.002;22.014;2023-01-15T05:52:04;98837.37;;;5.08;64.68
65010;BME280;51556;50.002;22.014;2023-01-15T05:54:34;98832.86;;;5.05;64.32
65010;BME280;51556;50.002;22.014;2023-01-15T05:57:00;98828.17;;;5.03;64.64
65010;BME280;51556;50.002;22.014;2023-01-15T05:59:27;98827.80;;;5.05;64.64
65010;BME280;51556;50.002;22.014;2023-01-15T06:01:53;98817.52;;;5.05;64.70
65010;BME280;51556;50.002;22.014;2023-01-15T06:04:20;98814.19;;;5.06;64.73
65010;BME280;51556;50.002;22.014;2023-01-15T06:06:47;98821.34;;;5.07;64.51
65010;BME280;51556;50.002;22.014;2023-01-15T06:09:13;98813.63;;;5.09;64.70
65010;BME280;51556;50.002;22.014;2023-01-15T06:11:39;98810.42;;;5.15;64.77
65010;BME280;51556;50.002;22.014;2023-01-15T06:14:06;98799.98;;;5.12;64.36
65010;BME280;51556;50.002;22.014;2023-01-15T06:16:32;98796.29;;;5.15;64.75
65010;BME280;51556;50.002;22.014;2023-01-15T06:19:02;98800.62;;;5.17;64.64
65010;BME280;51556;50.002;22.014;2023-01-15T06:21:29;98796.98;;;5.16;64.50
65010;BME280;51556;50.002;22.014;2023-01-15T06:23:55;98796.51;;;5.11;64.55
65010;BME280;51556;50.002;22.014;2023-01-15T06:26:21;98799.69;;;5.08;64.70
65010;BME280;51556;50.002;22.014;2023-01-15T06:28:47;98783.51;;;5.04;65.08
65010;BME280;51556;50.002;22.014;2023-01-15T06:31:15;98781.60;;;5.03;65.12
65010;BME280;51556;50.002;22.014;2023-01-15T06:33:41;98775.11;;;5.06;65.36
65010;BME280;51556;50.002;22.014;2023-01-15T06:36:09;98769.93;;;5.02;65.38
65010;BME280;51556;50.002;22.014;2023-01-15T06:38:36;98769.24;;;5.01;65.43
65010;BME280;51556;50.002;22.014;2023-01-15T06:41:03;98767.67;;;5.01;65.25
65010;BME280;51556;50.002;22.014;2023-01-15T06:43:49;98763.65;;;5.01;65.61
65010;BME280;51556;50.002;22.014;2023-01-15T06:46:33;98769.41;;;5.02;65.66
65010;BME280;51556;50.002;22.014;2023-01-15T06:49:17;98763.45;;;5.03;65.54
65010;BME280;51556;50.002;22.014;2023-01-15T06:51:42;98756.49;;;5.02;65.48
65010;BME280;51556;50.002;22.014;2023-01-15T06:54:08;98752.13;;;5.03;65.43
65010;BME280;51556;50.002;22.014;2023-01-15T06:56:33;98753.62;;;5.09;65.44
65010;BME280;51556;50.002;22.014;2023-01-15T06:58:59;98751.67;;;5.11;65.57
65010;BME280;51556;50.002;22.014;2023-01-15T07:01:24;98746.96;;;5.11;65.85
65010;BME280;51556;50.002;22.014;2023-01-15T07:03:55;98741.38;;;5.11;65.86
65010;BME280;51556;50.002;22.014;2023-01-15T07:06:20;98740.64;;;5.14;65.47
65010;BME280;51556;50.002;22.014;2023-01-15T07:08:46;98734.39;;;5.12;65.51
65010;BME280;51556;50.002;22.014;2023-01-15T07:11:11;98738.52;;;5.16;65.58
65010;BME280;51556;50.002;22.014;2023-01-15T07:13:36;98736.55;;;5.20;65.53
65010;BME280;51556;50.002;22.014;2023-01-15T07:16:03;98733.50;;;5.24;65.38
65010;BME280;51556;50.002;22.014;2023-01-15T07:18:31;98732.72;;;5.30;65.56
65010;BME280;51556;50.002;22.014;2023-01-15T07:20:57;98737.35;;;5.35;65.44
65010;BME280;51556;50.002;22.014;2023-01-15T07:23:24;98735.04;;;5.39;65.08
65010;BME280;51556;50.002;22.014;2023-01-15T07:25:52;98733.56;;;5.45;65.20
65010;BME280;51556;50.002;22.014;2023-01-15T07:28:18;98743.34;;;5.45;64.98
65010;BME280;51556;50.002;22.014;2023-01-15T07:30:46;98737.21;;;5.46;65.20
65010;BME280;51556;50.002;22.014;2023-01-15T07:33:11;98731.77;;;5.49;64.90
65010;BME280;51556;50.002;22.014;2023-01-15T07:35:37;98724.75;;;5.51;65.16
65010;BME280;51556;50.002;22.014;2023-01-15T07:38:03;98727.00;;;5.52;64.97
65010;BME280;51556;50.002;22.014;2023-01-15T07:40:28;98723.16;;;5.52;64.79
65010;BME280;51556;50.002;22.014;2023-01-15T07:42:54;98728.65;;;5.57;64.95
65010;BME280;51556;50.002;22.014;2023-01-15T07:45:38;98726.16;;;5.60;64.74
65010;BME280;51556;50.002;22.014;2023-01-15T07:48:24;98723.48;;;5.64;64.63
65010;BME280;51556;50.002;22.014;2023-01-15T07:51:08;98720.35;;;5.63;64.87
65010;BME280;51556;50.002;22.014;2023-01-15T07:53:34;98718.92;;;5.65;64.67
65010;BME280;51556;50.002;22.014;2023-01-15T07:55:59;98719.34;;;5.72;64.76
65010;BME280;51556;50.002;22.014;2023-01-15T07:58:25;98721.20;;;5.75;64.60
65010;BME280;51556;50.002;22.014;2023-01-15T08:00:50;98720.89;;;5.73;64.51
65010;BME280;51556;50.002;22.014;2023-01-15T08:03:16;98720.14;;;5.76;64.27
65010;BME280;51556;50.002;22.014;2023-01-15T08:05:42;98720.43;;;5.79;64.24
65010;BME280;51556;50.002;22.014;2023-01-15T08:08:14;98719.02;;;5.81;64.28
65010;BME280;51556;50.002;22.014;2023-01-15T08:10:39;98723.98;;;5.88;64.67
65010;BME280;51556;50.002;22.014;2023-01-15T08:13:24;98728.96;;;5.93;64.00
65010;BME280;51556;50.002;22.014;2023-01-15T08:16:09;98729.61;;;5.95;64.11
65010;BME280;51556;50.002;22.014;2023-01-15T08:18:36;98729.18;;;6.00;63.89
65010;BME280;51556;50.002;22.014;2023-01-15T08:21:01;98721.97;;;6.03;63.72
65010;BME280;51556;50.002;22.014;2023-01-15T08:23:26;98729.06;;;6.07;63.72
65010;BME280;51556;50.002;22.014;2023-01-15T08:25:52;98722.98;;;6.05;63.39
65010;BME280;51556;50.002;22.014;2023-01-15T08:28:17;98719.16;;;6.04;63.33
65010;BME280;51556;50.002;22.014;2023-01-15T08:30:43;98721.48;;;6.01;63.35
65010;BME280;51556;50.002;22.014;2023-01-15T08:33:08;98723.09;;;5.99;63.52
65010;BME280;51556;50.002;22.014;2023-01-15T08:35:34;98723.77;;;5.91;63.15
65010;BME280;51556;50.002;22.014;2023-01-15T08:38:06;98723.64;;;5.88;63.53
65010;BME280;51556;50.002;22.014;2023-01-15T08:40:32;98718.56;;;5.89;63.80
65010;BME280;51556;50.002;22.014;2023-01-15T08:43:18;98714.16;;;5.91;63.60
65010;BME280;51556;50.002;22.014;2023-01-15T08:45:43;98716.03;;;5.94;63.58
65010;BME280;51556;50.002;22.014;2023-01-15T08:48:08;98714.26;;;5.94;63.78
65010;BME280;51556;50.002;22.014;2023-01-15T08:50:34;98713.50;;;5.98;63.64
65010;BME280;51556;50.002;22.014;2023-01-15T08:52:59;98701.98;;;5.97;63.11
65010;BME280;51556;50.002;22.014;2023-01-15T08:55:25;98699.58;;;5.95;63.31
65010;BME280;51556;50.002;22.014;2023-01-15T08:57:50;98703.45;;;5.94;63.22
65010;BME280;51556;50.002;22.014;2023-01-15T09:00:16;98701.68;;;5.94;63.33
65010;BME280;51556;50.002;22.014;2023-01-15T09:02:41;98698.18;;;5.95;63.54
65010;BME280;51556;50.002;22.014;2023-01-15T09:05:07;98691.20;;;5.94;63.18
65010;BME280;51556;50.002;22.014;2023-01-15T09:07:32;98684.29;;;6.00;63.76
65010;BME280;51556;50.002;22.014;2023-01-15T09:09:59;98687.00;;;6.05;63.28
65010;BME280;51556;50.002;22.014;2023-01-15T09:12:24;98677.96;;;6.02;62.83
65010;BME280;51556;50.002;22.014;2023-01-15T09:14:51;98680.02;;;6.05;63.07
65010;BME280;51556;50.002;22.014;2023-01-15T09:17:16;98679.25;;;6.09;63.08
65010;BME280;51556;50.002;22.014;2023-01-15T09:19:42;98680.83;;;6.09;62.86
65010;BME280;51556;50.002;22.014;2023-01-15T09:22:07;98683.08;;;6.10;62.75
65010;BME280;51556;50.002;22.014;2023-01-15T09:24:33;98680.01;;;6.06;62.75
65010;BME280;51556;50.002;22.014;2023-01-15T09:26:58;98675.29;;;6.05;62.48
65010;BME280;51556;50.002;22.014;2023-01-15T09:29:23;98657.90;;;6.11;62.98
65010;BME280;51556;50.002;22.014;2023-01-15T09:31:49;98655.03;;;6.15;62.63
65010;BME280;51556;50.002;22.014;2023-01-15T09:34:14;98653.50;;;6.12;62.22
65010;BME280;51556;50.002;22.014;2023-01-15T09:36:40;98645.23;;;6.16;62.16
65010;BME280;51556;50.002;22.014;2023-01-15T09:39:05;98632.27;;;6.18;62.29
65010;BME280;51556;50.002;22.014;2023-01-15T09:49:39;98624.39;;;6.18;62.09
65010;BME280;51556;50.002;22.014;2023-01-15T09:55:48;98598.34;;;6.27;62.11
65010;BME280;51556;50.002;22.014;2023-01-15T09:57:56;98590.55;;;6.31;61.28
65010;BME280;51556;50.002;22.014;2023-01-15T10:00:25;98584.59;;;6.40;61.55
65010;BME280;51556;50.002;22.014;2023-01-15T10:05:31;98580.10;;;6.46;61.13
65010;BME280;51556;50.002;22.014;2023-01-15T10:08:11;98563.06;;;6.50;60.68
65010;BME280;51556;50.002;22.014;2023-01-15T10:10:44;98566.73;;;6.50;60.32
65010;BME280;51556;50.002;22.014;2023-01-15T10:13:37;98558.23;;;6.47;60.22
65010;BME280;51556;50.002;22.014;2023-01-15T10:16:06;98548.02;;;6.50;60.49
65010;BME280;51556;50.002;22.014;2023-01-15T10:18:32;98556.77;;;6.50;60.23
65010;BME280;51556;50.002;22.014;2023-01-15T10:21:05;98541.45;;;6.46;59.86
65010;BME280;51556;50.002;22.014;2023-01-15T10:24:10;98528.44;;;6.42;59.78
65010;BME280;51556;50.002;22.014;2023-01-15T10:26:52;98528.48;;;6.40;60.01
65010;BME280;51556;50.002;22.014;2023-01-15T10:29:45;98525.55;;;6.46;60.01
65010;BME280;51556;50.002;22.014;2023-01-15T10:45:21;98512.34;;;6.42;59.47
65010;BME280;51556;50.002;22.014;2023-01-15T10:48:15;98507.51;;;6.40;59.22
65010;BME280;51556;50.002;22.014;2023-01-15T10:50:38;98504.86;;;6.41;59.45
65010;BME280;51556;50.002;22.014;2023-01-15T10:53:11;98512.09;;;6.30;59.52
65010;BME280;51556;50.002;22.014;2023-01-15T10:55:40;98502.91;;;6.28;59.27
65010;BME280;51556;50.002;22.014;2023-01-15T10:58:24;98502.18;;;6.29;60.20
65010;BME280;51556;50.002;22.014;2023-01-15T11:00:57;98500.20;;;6.31;60.03
65010;BME280;51556;50.002;22.014;2023-01-15T11:03:44;98500.72;;;6.24;59.54
65010;BME280;51556;50.002;22.014;2023-01-15T11:06:15;98494.70;;;6.27;60.55
65010;BME280;51556;50.002;22.014;2023-01-15T11:08:44;98489.27;;;6.34;60.21
65010;BME280;51556;50.002;22.014;2023-01-15T11:13:55;98494.83;;;6.44;59.50
65010;BME280;51556;50.002;22.014;2023-01-15T11:16:44;98487.08;;;6.46;60.05
65010;BME280;51556;50.002;22.014;2023-01-15T11:19:31;98489.13;;;6.49;59.32
65010;BME280;51556;50.002;22.014;2023-01-15T11:22:21;98484.23;;;6.49;59.57
65010;BME280;51556;50.002;22.014;2023-01-15T11:24:56;98480.70;;;6.51;59.45
65010;BME280;51556;50.002;22.014;2023-01-15T11:27:29;98482.54;;;6.46;59.88
65010;BME280;51556;50.002;22.014;2023-01-15T11:29:58;98485.66;;;6.48;60.04
65010;BME280;51556;50.002;22.014;2023-01-15T11:32:34;98493.30;;;6.50;59.66
65010;BME280;51556;50.002;22.014;2023-01-15T11:35:22;98493.15;;;6.49;59.67
65010;BME280;51556;50.002;22.014;2023-01-15T11:37:47;98510.21;;;6.44;59.75
65010;BME280;51556;50.002;22.014;2023-01-15T11:40:18;98508.47;;;6.36;59.38
65010;BME280;51556;50.002;22.014;2023-01-15T11:42:48;98506.17;;;6.22;60.13
65010;BME280;51556;50.002;22.014;2023-01-15T11:45:33;98505.30;;;6.22;60.51
65010;BME280;51556;50.002;22.014;2023-01-15T11:48:19;98503.41;;;6.21;60.58
65010;BME280;51556;50.002;22.014;2023-01-15T11:51:11;98489.95;;;6.12;60.89
65010;BME280;51556;50.002;22.014;2023-01-15T11:53:42;98491.20;;;6.11;60.98
65010;BME280;51556;50.002;22.014;2023-01-15T11:56:14;98488.55;;;6.12;61.25
65010;BME280;51556;50.002;22.014;2023-01-15T11:58:45;98498.13;;;6.05;60.94
65010;BME280;51556;50.002;22.014;2023-01-15T12:01:30;98496.95;;;6.03;61.27
65010;BME280;51556;50.002;22.014;2023-01-15T12:04:02;98487.44;;;6.07;60.96
65010;BME280;51556;50.002;22.014;2023-01-15T12:06:30;98481.08;;;6.02;61.28
65010;BME280;51556;50.002;22.014;2023-01-15T12:19:13;98464.77;;;5.89;62.12
65010;BME280;51556;50.002;22.014;2023-01-15T12:24:58;98455.66;;;5.91;62.36
65010;BME280;51556;50.002;22.014;2023-01-15T12:27:45;98448.64;;;5.92;62.19
65010;BME280;51556;50.002;22.014;2023-01-15T12:31:21;98456.09;;;5.85;62.72
65010;BME280;51556;50.002;22.014;2023-01-15T12:36:09;98457.38;;;5.92;62.49
65010;BME280;51556;50.002;22.014;2023-01-15T12:38:57;98478.55;;;5.91;62.68
65010;BME280;51556;50.002;22.014;2023-01-15T12:41:30;98485.59;;;5.87;62.70
65010;BME280;51556;50.002;22.014;2023-01-15T12:44:40;98481.17;;;5.90;62.36
65010;BME280;51556;50.002;22.014;2023-01-15T12:50:48;98482.63;;;5.86;62.71
65010;BME280;51556;50.002;22.014;2023-01-15T12:55:59;98469.69;;;5.78;62.94
65010;BME280;51556;50.002;22.014;2023-01-15T13:01:05;98458.50;;;5.78;63.04
65010;BME280;51556;50.002;22.014;2023-01-15T13:03:50;98467.96;;;5.77;62.88
65010;BME280;51556;50.002;22.014;2023-01-15T13:06:18;98463.39;;;5.78;63.13
65010;BME280;51556;50.002;22.014;2023-01-15T13:11:21;98465.08;;;5.72;63.16
65010;BME280;51556;50.002;22.014;2023-01-15T13:13:47;98463.09;;;5.76;63.50
65010;BME280;51556;50.002;22.014;2023-01-15T13:21:54;98475.48;;;5.77;63.37
65010;BME280;51556;50.002;22.014;2023-01-15T13:24:47;98471.37;;;5.72;63.57
65010;BME280;51556;50.002;22.014;2023-01-15T13:35:35;98487.60;;;5.72;63.54
65010;BME280;51556;50.002;22.014;2023-01-15T13:38:14;98481.67;;;5.72;63.87
65010;BME280;51556;50.002;22.014;2023-01-15T13:40:42;98477.63;;;5.74;63.74
65010;BME280;51556;50.002;22.014;2023-01-15T13:43:40;98465.52;;;5.77;63.80
65010;BME280;51556;50.002;22.014;2023-01-15T13:46:12;98472.73;;;5.74;63.75
65010;BME280;51556;50.002;22.014;2023-01-15T13:48:43;98476.18;;;5.67;63.92
65010;BME280;51556;50.002;22.014;2023-01-15T13:51:25;98482.27;;;5.68;63.94
65010;BME280;51556;50.002;22.014;2023-01-15T13:53:53;98485.77;;;5.68;63.95
65010;BME280;51556;50.002;22.014;2023-01-15T13:56:31;98492.22;;;5.69;63.96
65010;BME280;51556;50.002;22.014;2023-01-15T13:58:58;98498.61;;;5.72;63.83
65010;BME280;51556;50.002;22.014;2023-01-15T14:01:32;98500.27;;;5.76;64.01
65010;BME280;51556;50.002;22.014;2023-01-15T14:06:49;98495.30;;;5.81;63.59
65010;BME280;51556;50.002;22.014;2023-01-15T14:12:05;98489.88;;;5.81;63.56
65010;BME280;51556;50.002;22.014;2023-01-15T14:36:16;98471.20;;;5.46;65.20
65010;BME280;51556;50.002;22.014;2023-01-15T14:39:00;98467.65;;;5.40;65.54
65010;BME280;51556;50.002;22.014;2023-01-15T14:41:34;98475.17;;;5.29;65.81
65010;BME280;51556;50.002;22.014;2023-01-15T14:44:31;98466.52;;;5.25;66.24
65010;BME280;51556;50.002;22.014;2023-01-15T14:47:02;98456.41;;;5.24;66.24
65010;BME280;51556;50.002;22.014;2023-01-15T14:49:42;98445.04;;;5.26;66.22
65010;BME280;51556;50.002;22.014;2023-01-15T14:52:15;98439.41;;;5.20;66.68
65010;BME280;51556;50.002;22.014;2023-01-15T14:54:45;98430.48;;;5.20;66.79
65010;BME280;51556;50.002;22.014;2023-01-15T14:57:13;98422.80;;;5.14;67.14
65010;BME280;51556;50.002;22.014;2023-01-15T14:59:53;98420.88;;;5.14;67.36
65010;BME280;51556;50.002;22.014;2023-01-15T15:02:24;98416.44;;;5.08;68.12
65010;BME280;51556;50.002;22.014;2023-01-15T15:04:56;98408.98;;;4.95;68.90
65010;BME280;51556;50.002;22.014;2023-01-15T15:07:25;98403.85;;;4.90;68.82
65010;BME280;51556;50.002;22.014;2023-01-15T15:09:59;98404.15;;;4.84;69.43
65010;BME280;51556;50.002;22.014;2023-01-15T15:12:51;98402.23;;;4.83;69.46
65010;BME280;51556;50.002;22.014;2023-01-15T15:15:34;98398.35;;;4.77;69.87
65010;BME280;51556;50.002;22.014;2023-01-15T15:18:06;98399.58;;;4.76;69.45
65010;BME280;51556;50.002;22.014;2023-01-15T15:31:22;98393.45;;;4.57;70.60
65010;BME280;51556;50.002;22.014;2023-01-15T15:33:54;98397.13;;;4.56;70.98